createdAt,value
2023-04-30T00:00:11.390Z,99922.55
2023-04-30T00:00:33.145Z,99925.80
2023-04-30T00:00:54.971Z,99927.18
2023-04-30T00:01:16.669Z,99924.73
2023-04-30T00:01:38.434Z,99925.63
2023-04-30T00:02:00.445Z,99926.88
2023-04-30T00:02:22.760Z,99926.84
2023-04-30T00:02:44.679Z,99926.09
2023-04-30T00:03:06.685Z,99928.02
2023-04-30T00:03:28.804Z,99929.20
2023-04-30T00:03:51.046Z,99929.20
2023-04-30T00:04:13.217Z,99930.56
2023-04-30T00:04:35.163Z,99929.74
2023-04-30T00:04:57.054Z,99929.89
2023-04-30T00:05:18.929Z,99933.34
2023-04-30T00:05:41.049Z,99931.42
2023-04-30T00:06:02.950Z,99932.71
2023-04-30T00:06:26.250Z,99931.75
2023-04-30T00:06:49.956Z,99930.70
2023-04-30T00:07:12.357Z,99931.79
2023-04-30T00:07:34.244Z,99932.02
2023-04-30T00:07:56.439Z,99928.58
2023-04-30T00:08:18.319Z,99932.52
2023-04-30T00:08:40.518Z,99927.91
2023-04-30T00:09:02.307Z,99923.23
2023-04-30T00:09:24.045Z,99921.05
2023-04-30T00:09:45.872Z,99920.22
2023-04-30T00:10:08.987Z,99920.09
2023-04-30T00:10:30.879Z,99920.75
2023-04-30T00:10:52.655Z,99919.08
2023-04-30T00:11:14.436Z,99920.24
2023-04-30T00:11:36.256Z,99917.86
2023-04-30T00:11:58.016Z,99918.39
2023-04-30T00:12:19.734Z,99914.19
2023-04-30T00:12:41.583Z,99916.83
2023-04-30T00:13:03.390Z,99912.73
2023-04-30T00:13:25.146Z,99910.39
2023-04-30T00:13:46.931Z,99911.35
2023-04-30T00:14:08.723Z,99910.13
2023-04-30T00:14:30.730Z,99907.08
2023-04-30T00:14:52.592Z,99908.80
2023-04-30T00:15:14.377Z,99906.09
2023-04-30T00:15:36.468Z,99908.55
2023-04-30T00:15:58.299Z,99903.55
2023-04-30T00:16:20.179Z,99903.33
2023-04-30T00:16:42.093Z,99901.55
2023-04-30T00:17:04.115Z,99899.25
2023-04-30T00:17:26.471Z,99897.34
2023-04-30T00:17:48.323Z,99897.38
2023-04-30T00:18:10.350Z,99893.23
2023-04-30T00:18:32.289Z,99895.23
2023-04-30T00:18:54.174Z,99890.60
2023-04-30T00:19:15.951Z,99886.33
2023-04-30T00:19:37.732Z,99887.69
2023-04-30T00:19:59.530Z,99881.47
2023-04-30T00:20:21.417Z,99885.66
2023-04-30T00:20:43.289Z,99884.57
2023-04-30T00:21:05.181Z,99886.27
2023-04-30T00:21:27.911Z,99883.60
2023-04-30T00:21:49.662Z,99883.96
2023-04-30T00:22:11.449Z,99884.64
2023-04-30T00:22:33.744Z,99883.93
2023-04-30T00:22:56.047Z,99885.62
2023-04-30T00:23:17.825Z,99878.38
2023-04-30T00:23:39.552Z,99882.52
2023-04-30T00:24:01.336Z,99882.34
2023-04-30T00:24:23.281Z,99883.02
2023-04-30T00:24:45.073Z,99881.52
2023-04-30T00:25:07.162Z,99881.48
2023-04-30T00:25:29.043Z,99882.65
2023-04-30T00:25:50.831Z,99879.75
2023-04-30T00:26:12.617Z,99885.36
2023-04-30T00:26:35.832Z,99883.59
2023-04-30T00:26:57.614Z,99886.73
2023-04-30T00:27:19.405Z,99885.04
2023-04-30T00:27:41.233Z,99886.46
2023-04-30T00:28:03.073Z,99883.67
2023-04-30T00:28:24.771Z,99886.75
2023-04-30T00:28:46.853Z,99882.59
2023-04-30T00:29:08.628Z,99886.37
2023-04-30T00:29:30.618Z,99883.71
2023-04-30T00:29:53.179Z,99883.27
2023-04-30T00:30:15.210Z,99886.55
2023-04-30T00:30:36.998Z,99887.20
2023-04-30T00:30:58.780Z,99885.90
2023-04-30T00:31:20.721Z,99881.73
2023-04-30T00:31:42.669Z,99882.92
2023-04-30T00:32:04.879Z,99884.42
2023-04-30T00:32:26.786Z,99884.17
2023-04-30T00:32:48.655Z,99879.65
2023-04-30T00:33:11.413Z,99879.29
2023-04-30T00:33:33.213Z,99876.30
2023-04-30T00:33:55.100Z,99879.61
2023-04-30T00:34:16.882Z,99875.87
2023-04-30T00:34:38.674Z,99879.17
2023-04-30T00:35:00.560Z,99877.70
2023-04-30T00:35:22.441Z,99871.02
2023-04-30T00:35:44.226Z,99872.64
2023-04-30T00:36:06.124Z,99870.27
2023-04-30T00:36:27.819Z,99871.98
2023-04-30T00:36:49.735Z,99872.61
2023-04-30T00:37:12.014Z,99865.38
2023-04-30T00:37:33.772Z,99866.42
2023-04-30T00:37:55.757Z,99864.88
2023-04-30T00:38:17.504Z,99867.77
2023-04-30T00:38:40.253Z,99867.52
2023-04-30T00:39:02.332Z,99863.85
2023-04-30T00:39:24.069Z,99859.93
2023-04-30T00:39:45.921Z,99864.39
2023-04-30T00:40:08.505Z,99866.05
2023-04-30T00:40:30.274Z,99868.49
2023-04-30T00:40:52.072Z,99863.83
2023-04-30T00:41:13.854Z,99863.90
2023-04-30T00:41:35.643Z,99860.88
2023-04-30T00:41:57.426Z,99862.37
2023-04-30T00:42:19.346Z,99861.23
2023-04-30T00:42:41.297Z,99863.89
2023-04-30T00:43:02.990Z,99861.38
2023-04-30T00:43:24.767Z,99860.11
2023-04-30T00:43:47.370Z,99859.72
2023-04-30T00:44:09.160Z,99852.60
2023-04-30T00:44:31.255Z,99858.56
2023-04-30T00:44:53.028Z,99855.69
2023-04-30T00:45:14.795Z,99851.95
2023-04-30T00:45:36.732Z,99850.54
2023-04-30T00:46:04.032Z,99850.48
2023-04-30T00:46:26.006Z,99852.79
2023-04-30T00:46:48.092Z,99849.55
2023-04-30T00:47:10.388Z,99849.88
2023-04-30T00:47:32.362Z,99851.13
2023-04-30T00:47:54.591Z,99845.67
2023-04-30T00:48:16.558Z,99849.64
2023-04-30T00:48:38.444Z,99848.14
2023-04-30T00:49:04.942Z,99849.16
2023-04-30T00:49:26.819Z,99852.05
2023-04-30T00:49:48.604Z,99850.92
2023-04-30T00:50:11.320Z,99851.55
2023-04-30T00:50:33.092Z,99851.08
2023-04-30T00:50:55.594Z,99852.77
2023-04-30T00:51:17.415Z,99854.25
2023-04-30T00:51:39.474Z,99854.54
2023-04-30T00:52:02.070Z,99854.77
2023-04-30T00:52:23.860Z,99850.08
2023-04-30T00:52:45.745Z,99852.43
2023-04-30T00:53:07.525Z,99853.85
2023-04-30T00:53:29.512Z,99857.32
2023-04-30T00:53:51.301Z,99854.88
2023-04-30T00:54:13.196Z,99853.08
2023-04-30T00:54:34.975Z,99855.63
2023-04-30T00:54:56.763Z,99855.61
2023-04-30T00:55:18.866Z,99855.58
2023-04-30T00:55:41.161Z,99857.27
2023-04-30T00:56:03.035Z,99856.48
2023-04-30T00:56:24.817Z,99852.61
2023-04-30T00:56:46.990Z,99854.13
2023-04-30T00:57:09.664Z,99850.42
2023-04-30T00:57:31.396Z,99854.13
2023-04-30T00:57:53.379Z,99851.08
2023-04-30T00:58:15.272Z,99848.63
2023-04-30T00:58:37.262Z,99850.60
2023-04-30T00:58:59.382Z,99847.58
2023-04-30T00:59:21.240Z,99847.80
2023-04-30T00:59:43.023Z,99846.82
2023-04-30T01:00:05.059Z,99846.21
2023-04-30T01:00:27.308Z,99844.02
2023-04-30T01:00:49.197Z,99842.73
2023-04-30T01:01:11.604Z,99846.87
2023-04-30T01:01:33.613Z,99848.79
2023-04-30T01:01:55.673Z,99844.31
2023-04-30T01:02:17.887Z,99847.06
2023-04-30T01:02:40.072Z,99843.67
2023-04-30T01:03:02.124Z,99842.19
2023-04-30T01:03:24.310Z,99844.67
2023-04-30T01:03:46.162Z,99841.55
2023-04-30T01:04:08.023Z,99842.73
2023-04-30T01:04:29.906Z,99845.19
2023-04-30T01:04:51.742Z,99847.61
2023-04-30T01:05:13.448Z,99843.28
2023-04-30T01:05:35.460Z,99847.38
2023-04-30T01:05:57.272Z,99845.34
2023-04-30T01:06:19.181Z,99847.33
2023-04-30T01:06:41.035Z,99847.60
2023-04-30T01:07:03.622Z,99843.10
2023-04-30T01:07:27.862Z,99840.23
2023-04-30T01:07:49.584Z,99839.27
2023-04-30T01:08:11.457Z,99841.98
2023-04-30T01:08:33.211Z,99843.58
2023-04-30T01:08:54.996Z,99842.64
2023-04-30T01:09:16.782Z,99841.30
2023-04-30T01:09:38.670Z,99842.02
2023-04-30T01:10:00.665Z,99842.24
2023-04-30T01:10:27.873Z,99841.28
2023-04-30T01:10:54.027Z,99842.96
2023-04-30T01:11:34.574Z,99840.48
2023-04-30T01:12:14.852Z,99839.78
2023-04-30T01:12:43.479Z,99842.98
2023-04-30T01:13:10.001Z,99839.42
2023-04-30T01:13:38.015Z,99844.10
2023-04-30T01:14:05.002Z,99842.55
2023-04-30T01:14:29.741Z,99840.96
2023-04-30T01:14:51.544Z,99842.65
2023-04-30T01:15:22.732Z,99841.88
2023-04-30T01:15:53.667Z,99843.31
2023-04-30T01:16:24.114Z,99839.70
2023-04-30T01:16:55.388Z,99839.50
2023-04-30T01:17:29.698Z,99839.48
2023-04-30T01:17:56.518Z,99835.79
2023-04-30T01:18:44.654Z,99833.77
2023-04-30T01:19:11.941Z,99832.40
2023-04-30T01:19:43.332Z,99833.23
2023-04-30T01:20:06.157Z,99828.04
2023-04-30T01:20:28.620Z,99831.73
2023-04-30T01:21:09.943Z,99830.53
2023-04-30T01:21:33.384Z,99832.95
2023-04-30T01:21:56.778Z,99834.30
2023-04-30T01:22:39.542Z,99829.14
2023-04-30T01:23:03.869Z,99831.58
2023-04-30T01:23:28.624Z,99830.95
2023-04-30T01:23:57.976Z,99826.31
2023-04-30T01:24:22.526Z,99828.20
2023-04-30T01:24:55.255Z,99829.15
2023-04-30T01:25:22.717Z,99830.88
2023-04-30T01:26:04.800Z,99830.02
2023-04-30T01:26:46.746Z,99827.20
2023-04-30T01:27:29.502Z,99825.48
2023-04-30T01:28:04.269Z,99826.56
2023-04-30T01:28:26.346Z,99826.97
2023-04-30T01:28:48.135Z,99826.73
2023-04-30T01:29:10.646Z,99826.23
2023-04-30T01:29:32.413Z,99823.25
2023-04-30T01:29:55.181Z,99822.96
2023-04-30T01:30:17.318Z,99822.63
2023-04-30T01:30:40.929Z,99825.86
2023-04-30T01:31:03.131Z,99824.77
2023-04-30T01:31:25.042Z,99824.73
2023-04-30T01:31:49.246Z,99823.96
2023-04-30T01:32:11.487Z,99818.61
2023-04-30T01:32:33.231Z,99819.40
2023-04-30T01:32:55.387Z,99823.23
2023-04-30T01:33:17.216Z,99822.81
2023-04-30T01:33:39.308Z,99829.41
2023-04-30T01:34:01.009Z,99825.10
2023-04-30T01:34:23.185Z,99826.91
2023-04-30T01:34:44.964Z,99827.80
2023-04-30T01:35:07.059Z,99827.67
2023-04-30T01:35:50.794Z,99828.66
2023-04-30T01:36:32.048Z,99830.36
2023-04-30T01:37:15.622Z,99827.04
2023-04-30T01:38:00.621Z,99829.24
2023-04-30T01:38:27.934Z,99826.50
2023-04-30T01:38:49.820Z,99829.09
2023-04-30T01:39:15.686Z,99831.17
2023-04-30T01:39:47.815Z,99831.51
2023-04-30T01:40:20.663Z,99821.98
2023-04-30T01:40:42.518Z,99828.70
2023-04-30T01:41:09.520Z,99825.75
2023-04-30T01:41:33.768Z,99827.07
2023-04-30T01:42:03.113Z,99827.14
2023-04-30T01:42:33.690Z,99828.88
2023-04-30T01:43:18.594Z,99821.96
2023-04-30T01:43:45.901Z,99827.61
2023-04-30T01:44:30.693Z,99826.68
2023-04-30T01:45:07.104Z,99825.39
2023-04-30T01:45:37.784Z,99828.19
2023-04-30T01:46:06.980Z,99830.08
2023-04-30T01:46:29.418Z,99822.36
2023-04-30T01:47:14.129Z,99823.15
2023-04-30T01:47:54.160Z,99825.79
2023-04-30T01:48:22.759Z,99824.05
2023-04-30T01:48:52.629Z,99822.20
2023-04-30T01:49:40.484Z,99818.27
2023-04-30T01:50:11.685Z,99817.24
2023-04-30T01:50:34.911Z,99817.45
2023-04-30T01:51:02.617Z,99815.93
2023-04-30T01:51:36.668Z,99812.27
2023-04-30T01:52:02.561Z,99812.86
2023-04-30T01:52:30.221Z,99810.89
2023-04-30T01:52:56.858Z,99812.14
2023-04-30T01:53:21.399Z,99811.94
2023-04-30T01:53:43.993Z,99811.77
2023-04-30T01:54:27.368Z,99816.44
2023-04-30T01:55:15.954Z,99812.86
2023-04-30T01:55:44.353Z,99814.73
2023-04-30T01:56:06.556Z,99811.41
2023-04-30T01:56:31.219Z,99813.81
2023-04-30T01:56:54.470Z,99812.80
2023-04-30T01:57:21.879Z,99813.39
2023-04-30T01:57:47.209Z,99813.09
2023-04-30T01:58:12.881Z,99811.39
2023-04-30T01:58:34.661Z,99811.09
2023-04-30T01:58:56.559Z,99807.65
2023-04-30T01:59:18.277Z,99808.79
2023-04-30T01:59:40.127Z,99808.41
2023-04-30T02:00:01.914Z,99807.46
2023-04-30T02:00:23.894Z,99804.52
2023-04-30T02:00:46.492Z,99802.04
2023-04-30T02:01:08.418Z,99804.36
2023-04-30T02:01:32.001Z,99802.44
2023-04-30T02:01:55.440Z,99801.45
2023-04-30T02:02:17.624Z,99799.75
2023-04-30T02:02:39.484Z,99800.73
2023-04-30T02:03:01.462Z,99797.53
2023-04-30T02:03:24.897Z,99798.52
2023-04-30T02:03:46.800Z,99799.67
2023-04-30T02:04:08.715Z,99798.61
2023-04-30T02:04:30.807Z,99796.03
2023-04-30T02:04:52.532Z,99797.02
2023-04-30T02:05:14.270Z,99797.67
2023-04-30T02:05:36.575Z,99803.62
2023-04-30T02:05:59.424Z,99804.98
2023-04-30T02:06:21.643Z,99800.94
2023-04-30T02:06:43.632Z,99801.79
2023-04-30T02:07:05.633Z,99805.73
2023-04-30T02:07:44.193Z,99803.75
2023-04-30T02:08:06.390Z,99806.94
2023-04-30T02:08:28.578Z,99806.64
2023-04-30T02:08:50.300Z,99804.57
2023-04-30T02:09:12.041Z,99804.67
2023-04-30T02:09:33.827Z,99808.02
2023-04-30T02:09:55.870Z,99807.42
2023-04-30T02:10:18.624Z,99803.42
2023-04-30T02:10:40.528Z,99802.63
2023-04-30T02:11:02.292Z,99808.09
2023-04-30T02:11:26.861Z,99809.20
2023-04-30T02:11:48.722Z,99803.16
2023-04-30T02:12:11.223Z,99802.70
2023-04-30T02:12:33.113Z,99801.37
2023-04-30T02:12:55.306Z,99801.73
2023-04-30T02:13:17.607Z,99801.63
2023-04-30T02:13:39.892Z,99802.65
2023-04-30T02:14:02.092Z,99799.48
2023-04-30T02:14:23.976Z,99802.73
2023-04-30T02:14:48.015Z,99804.32
2023-04-30T02:15:10.312Z,99801.56
2023-04-30T02:15:34.240Z,99802.83
2023-04-30T02:15:56.379Z,99806.63
2023-04-30T02:16:18.261Z,99807.94
2023-04-30T02:16:40.754Z,99808.66
2023-04-30T02:17:02.631Z,99806.95
2023-04-30T02:17:24.395Z,99810.29
2023-04-30T02:17:46.304Z,99809.91
2023-04-30T02:18:08.243Z,99810.69
2023-04-30T02:18:30.252Z,99812.20
2023-04-30T02:18:52.202Z,99811.93
2023-04-30T02:19:14.129Z,99811.02
2023-04-30T02:19:35.910Z,99814.48
2023-04-30T02:19:58.617Z,99813.44
2023-04-30T02:20:20.706Z,99815.98
2023-04-30T02:20:42.515Z,99812.46
2023-04-30T02:21:04.479Z,99812.41
2023-04-30T02:21:27.398Z,99815.85
2023-04-30T02:21:49.379Z,99813.92
2023-04-30T02:22:11.374Z,99814.69
2023-04-30T02:22:33.175Z,99814.59
2023-04-30T02:22:54.939Z,99814.31
2023-04-30T02:23:16.730Z,99814.04
2023-04-30T02:23:38.935Z,99813.77
2023-04-30T02:24:00.676Z,99815.64
2023-04-30T02:24:22.588Z,99813.52
2023-04-30T02:24:44.418Z,99816.78
2023-04-30T02:25:06.563Z,99812.41
2023-04-30T02:25:28.553Z,99813.30
2023-04-30T02:25:50.949Z,99816.63
2023-04-30T02:26:12.754Z,99816.66
2023-04-30T02:26:34.520Z,99815.57
2023-04-30T02:26:56.509Z,99813.48
2023-04-30T02:27:18.293Z,99816.13
2023-04-30T02:27:40.179Z,99815.95
2023-04-30T02:28:02.180Z,99816.88
2023-04-30T02:28:23.956Z,99815.46
2023-04-30T02:28:45.740Z,99817.74
2023-04-30T02:29:07.520Z,99819.34
2023-04-30T02:29:29.411Z,99818.48
2023-04-30T02:29:51.463Z,99818.16
2023-04-30T02:30:13.404Z,99817.67
2023-04-30T02:30:35.123Z,99815.98
2023-04-30T02:30:57.053Z,99816.39
2023-04-30T02:31:18.952Z,99813.35
2023-04-30T02:31:40.991Z,99816.79
2023-04-30T02:32:05.324Z,99816.73
2023-04-30T02:32:28.045Z,99809.92
2023-04-30T02:32:49.998Z,99813.26
2023-04-30T02:33:12.675Z,99812.95
2023-04-30T02:33:34.458Z,99814.16
2023-04-30T02:33:56.200Z,99814.77
2023-04-30T02:34:18.000Z,99816.43
2023-04-30T02:34:40.833Z,99815.81
2023-04-30T02:35:02.657Z,99816.27
2023-04-30T02:35:24.504Z,99813.27
2023-04-30T02:35:46.595Z,99812.53
2023-04-30T02:36:08.381Z,99814.58
2023-04-30T02:36:33.660Z,99815.04
2023-04-30T02:36:55.545Z,99811.95
2023-04-30T02:37:17.311Z,99817.20
2023-04-30T02:37:39.097Z,99818.48
2023-04-30T02:38:00.803Z,99814.29
2023-04-30T02:38:22.772Z,99813.38
2023-04-30T02:38:44.506Z,99815.29
2023-04-30T02:39:06.544Z,99813.41
2023-04-30T02:39:28.337Z,99810.48
2023-04-30T02:39:51.437Z,99813.02
2023-04-30T02:40:13.329Z,99807.71
2023-04-30T02:40:35.111Z,99811.77
2023-04-30T02:40:57.019Z,99812.48
2023-04-30T02:41:18.735Z,99816.12
2023-04-30T02:41:40.567Z,99811.77
2023-04-30T02:42:02.289Z,99813.81
2023-04-30T02:42:24.169Z,99813.29
2023-04-30T02:42:46.131Z,99812.59
2023-04-30T02:43:07.878Z,99813.45
2023-04-30T02:43:29.590Z,99814.87
2023-04-30T02:43:52.124Z,99814.70
2023-04-30T02:44:13.983Z,99815.96
2023-04-30T02:44:35.701Z,99813.41
2023-04-30T02:44:57.972Z,99813.67
2023-04-30T02:45:19.886Z,99811.27
2023-04-30T02:45:42.094Z,99813.50
2023-04-30T02:46:04.293Z,99812.95
2023-04-30T02:46:26.274Z,99809.73
2023-04-30T02:46:48.723Z,99812.83
2023-04-30T02:47:10.711Z,99812.20
2023-04-30T02:47:32.444Z,99813.73
2023-04-30T02:47:54.308Z,99813.11
2023-04-30T02:48:16.274Z,99812.25
2023-04-30T02:48:39.182Z,99814.60
2023-04-30T02:49:00.929Z,99810.73
2023-04-30T02:49:22.747Z,99814.59
2023-04-30T02:49:44.530Z,99810.64
2023-04-30T02:50:07.987Z,99812.02
2023-04-30T02:50:30.048Z,99810.30
2023-04-30T02:50:51.827Z,99812.80
2023-04-30T02:51:13.923Z,99813.83
2023-04-30T02:51:38.258Z,99814.08
2023-04-30T02:52:00.157Z,99809.31
2023-04-30T02:52:22.138Z,99811.17
2023-04-30T02:52:45.147Z,99810.78
2023-04-30T02:53:06.933Z,99808.61
2023-04-30T02:53:28.662Z,99806.72
2023-04-30T02:53:50.808Z,99807.33
2023-04-30T02:54:12.940Z,99807.14
2023-04-30T02:54:34.785Z,99807.79
2023-04-30T02:54:56.574Z,99806.89
2023-04-30T02:55:18.316Z,99804.28
2023-04-30T02:55:40.148Z,99803.02
2023-04-30T02:56:01.920Z,99803.89
2023-04-30T02:56:23.712Z,99801.30
2023-04-30T02:56:46.005Z,99803.86
2023-04-30T02:57:08.469Z,99802.49
2023-04-30T02:57:30.287Z,99801.60
2023-04-30T02:57:52.074Z,99799.65
2023-04-30T02:58:13.826Z,99801.44
2023-04-30T02:58:36.154Z,99800.25
2023-04-30T02:58:57.938Z,99799.42
2023-04-30T02:59:19.667Z,99801.30
2023-04-30T02:59:46.059Z,99802.76
2023-04-30T03:00:09.219Z,99799.63
2023-04-30T03:00:31.535Z,99800.52
2023-04-30T03:00:53.953Z,99798.30
2023-04-30T03:01:16.735Z,99798.64
2023-04-30T03:01:38.770Z,99798.61
2023-04-30T03:02:02.131Z,99800.77
2023-04-30T03:02:24.253Z,99798.09
2023-04-30T03:02:46.793Z,99796.72
2023-04-30T03:03:08.806Z,99793.23
2023-04-30T03:03:30.983Z,99793.94
2023-04-30T03:03:52.834Z,99793.19
2023-04-30T03:04:15.913Z,99792.95
2023-04-30T03:04:37.701Z,99792.04
2023-04-30T03:04:59.482Z,99792.06
2023-04-30T03:05:21.190Z,99791.70
2023-04-30T03:05:43.144Z,99792.99
2023-04-30T03:06:05.482Z,99792.52
2023-04-30T03:06:27.457Z,99793.24
2023-04-30T03:06:49.333Z,99788.92
2023-04-30T03:07:11.746Z,99790.05
2023-04-30T03:07:33.506Z,99788.09
2023-04-30T03:07:55.913Z,99790.98
2023-04-30T03:08:17.689Z,99790.33
2023-04-30T03:08:39.420Z,99789.41
2023-04-30T03:09:01.381Z,99787.31
2023-04-30T03:09:23.288Z,99787.67
2023-04-30T03:09:46.255Z,99789.56
2023-04-30T03:10:08.515Z,99784.91
2023-04-30T03:10:30.355Z,99784.67
2023-04-30T03:10:52.532Z,99787.91
2023-04-30T03:11:14.262Z,99783.20
2023-04-30T03:11:37.941Z,99783.95
2023-04-30T03:11:59.928Z,99781.61
2023-04-30T03:12:21.746Z,99783.10
2023-04-30T03:12:43.605Z,99780.30
2023-04-30T03:13:05.313Z,99781.85
2023-04-30T03:13:29.522Z,99782.98
2023-04-30T03:13:51.919Z,99783.14
2023-04-30T03:14:13.805Z,99782.97
2023-04-30T03:14:35.795Z,99784.96
2023-04-30T03:14:57.787Z,99782.38
2023-04-30T03:15:19.569Z,99782.43
2023-04-30T03:15:41.349Z,99783.80
2023-04-30T03:16:04.756Z,99784.21
2023-04-30T03:16:26.731Z,99782.60
2023-04-30T03:16:48.695Z,99782.55
2023-04-30T03:17:10.671Z,99784.93
2023-04-30T03:17:32.500Z,99783.98
2023-04-30T03:17:54.368Z,99787.05
2023-04-30T03:18:16.180Z,99784.00
2023-04-30T03:18:38.905Z,99786.19
2023-04-30T03:19:00.801Z,99786.77
2023-04-30T03:19:25.392Z,99780.85
2023-04-30T03:19:47.326Z,99783.36
2023-04-30T03:20:09.417Z,99787.64
2023-04-30T03:20:31.218Z,99786.44
2023-04-30T03:20:53.081Z,99789.80
2023-04-30T03:21:14.974Z,99787.15
2023-04-30T03:21:36.759Z,99786.77
2023-04-30T03:21:58.648Z,99790.14
2023-04-30T03:22:23.807Z,99790.96
2023-04-30T03:22:46.202Z,99789.23
2023-04-30T03:23:07.991Z,99788.42
2023-04-30T03:23:29.776Z,99792.06
2023-04-30T03:23:51.973Z,99790.61
2023-04-30T03:24:13.751Z,99792.83
2023-04-30T03:24:35.541Z,99789.52
2023-04-30T03:24:57.378Z,99789.46
2023-04-30T03:25:19.310Z,99788.27
2023-04-30T03:25:41.094Z,99788.30
2023-04-30T03:26:02.892Z,99786.98
2023-04-30T03:26:24.664Z,99785.95
2023-04-30T03:26:46.859Z,99783.63
2023-04-30T03:27:08.643Z,99784.98
2023-04-30T03:27:30.633Z,99784.02
2023-04-30T03:27:52.338Z,99783.56
2023-04-30T03:28:14.219Z,99782.67
2023-04-30T03:28:36.089Z,99782.05
2023-04-30T03:28:57.972Z,99783.71
2023-04-30T03:29:19.757Z,99782.61
2023-04-30T03:29:41.540Z,99783.91
2023-04-30T03:30:03.457Z,99783.08
2023-04-30T03:30:25.216Z,99782.52
2023-04-30T03:30:46.985Z,99784.93
2023-04-30T03:31:09.106Z,99783.27
2023-04-30T03:31:30.997Z,99781.92
2023-04-30T03:31:53.002Z,99784.25
2023-04-30T03:32:14.892Z,99779.10
2023-04-30T03:32:36.806Z,99779.86
2023-04-30T03:32:58.686Z,99779.60
2023-04-30T03:33:21.097Z,99781.64
2023-04-30T03:33:44.136Z,99779.77
2023-04-30T03:34:06.617Z,99782.70
2023-04-30T03:34:28.425Z,99779.97
2023-04-30T03:34:50.422Z,99778.74
2023-04-30T03:35:12.312Z,99782.24
2023-04-30T03:35:34.392Z,99779.10
2023-04-30T03:35:58.523Z,99782.97
2023-04-30T03:36:20.618Z,99781.25
2023-04-30T03:36:42.509Z,99781.98
2023-04-30T03:37:04.295Z,99780.06
2023-04-30T03:37:26.279Z,99780.14
2023-04-30T03:37:48.676Z,99782.50
2023-04-30T03:38:10.765Z,99781.71
2023-04-30T03:38:32.726Z,99782.47
2023-04-30T03:38:54.545Z,99783.79
2023-04-30T03:39:16.541Z,99782.11
2023-04-30T03:39:38.538Z,99785.33
2023-04-30T03:40:00.407Z,99785.06
2023-04-30T03:40:22.330Z,99787.38
2023-04-30T03:40:44.703Z,99786.69
2023-04-30T03:41:06.494Z,99788.93
2023-04-30T03:41:28.228Z,99788.44
2023-04-30T03:41:50.046Z,99792.02
2023-04-30T03:42:11.834Z,99790.04
2023-04-30T03:42:33.621Z,99793.73
2023-04-30T03:42:55.909Z,99794.13
2023-04-30T03:43:17.672Z,99791.69
2023-04-30T03:43:39.685Z,99790.85
2023-04-30T03:44:01.468Z,99788.66
2023-04-30T03:44:23.457Z,99792.89
2023-04-30T03:44:45.453Z,99791.18
2023-04-30T03:45:07.650Z,99791.82
2023-04-30T03:45:29.435Z,99790.11
2023-04-30T03:45:51.239Z,99791.71
2023-04-30T03:46:13.018Z,99790.07
2023-04-30T03:46:35.531Z,99792.38
2023-04-30T03:46:57.483Z,99789.10
2023-04-30T03:47:19.239Z,99791.35
2023-04-30T03:47:41.105Z,99790.52
2023-04-30T03:48:02.953Z,99787.41
2023-04-30T03:48:24.664Z,99788.40
2023-04-30T03:48:46.612Z,99793.91
2023-04-30T03:49:08.391Z,99785.57
2023-04-30T03:49:30.382Z,99784.76
2023-04-30T03:49:55.645Z,99783.17
2023-04-30T03:50:18.174Z,99785.41
2023-04-30T03:50:40.444Z,99785.38
2023-04-30T03:51:02.427Z,99785.08
2023-04-30T03:51:24.217Z,99783.73
2023-04-30T03:51:46.205Z,99784.61
2023-04-30T03:52:07.992Z,99782.10
2023-04-30T03:52:30.296Z,99781.70
2023-04-30T03:52:52.272Z,99783.35
2023-04-30T03:53:14.054Z,99780.13
2023-04-30T03:53:35.944Z,99778.02
2023-04-30T03:53:57.730Z,99779.83
2023-04-30T03:54:19.500Z,99780.66
2023-04-30T03:54:41.243Z,99778.59
2023-04-30T03:55:03.503Z,99780.38
2023-04-30T03:55:25.275Z,99781.83
2023-04-30T03:55:48.009Z,99777.86
2023-04-30T03:56:09.872Z,99780.89
2023-04-30T03:56:31.574Z,99779.98
2023-04-30T03:56:53.337Z,99778.46
2023-04-30T03:57:15.122Z,99781.56
2023-04-30T03:57:36.902Z,99778.07
2023-04-30T03:57:58.690Z,99779.49
2023-04-30T03:58:21.304Z,99778.44
2023-04-30T03:58:43.197Z,99778.16
2023-04-30T03:59:05.580Z,99778.73
2023-04-30T03:59:27.552Z,99779.32
2023-04-30T03:59:50.069Z,99780.08
2023-04-30T04:00:15.848Z,99775.64
2023-04-30T04:00:41.632Z,99779.94
2023-04-30T04:01:04.828Z,99782.65
2023-04-30T04:01:26.717Z,99780.14
2023-04-30T04:01:48.627Z,99786.02
2023-04-30T04:02:10.648Z,99783.80
2023-04-30T04:02:32.687Z,99783.50
2023-04-30T04:02:55.276Z,99782.94
2023-04-30T04:03:17.289Z,99784.69
2023-04-30T04:03:39.115Z,99783.24
2023-04-30T04:04:01.187Z,99783.48
2023-04-30T04:04:23.085Z,99787.20
2023-04-30T04:04:44.928Z,99780.05
2023-04-30T04:05:07.126Z,99785.00
2023-04-30T04:05:29.440Z,99784.02
2023-04-30T04:05:51.616Z,99782.82
2023-04-30T04:06:13.424Z,99780.92
2023-04-30T04:06:35.364Z,99779.59
2023-04-30T04:06:57.586Z,99778.07
2023-04-30T04:07:19.371Z,99777.09
2023-04-30T04:07:41.386Z,99779.67
2023-04-30T04:08:03.358Z,99776.96
2023-04-30T04:08:25.124Z,99775.19
2023-04-30T04:08:46.908Z,99774.52
2023-04-30T04:09:09.309Z,99775.61
2023-04-30T04:09:31.087Z,99771.80
2023-04-30T04:09:53.079Z,99769.75
2023-04-30T04:10:15.364Z,99768.06
2023-04-30T04:10:37.152Z,99764.76
2023-04-30T04:10:59.045Z,99766.48
2023-04-30T04:11:21.136Z,99763.73
2023-04-30T04:11:42.931Z,99768.75
2023-04-30T04:12:05.119Z,99767.78
2023-04-30T04:12:27.125Z,99765.41
2023-04-30T04:12:48.825Z,99770.95
2023-04-30T04:13:11.705Z,99766.46
2023-04-30T04:13:33.588Z,99767.75
2023-04-30T04:13:56.093Z,99769.10
2023-04-30T04:14:17.933Z,99767.36
2023-04-30T04:14:39.867Z,99764.17
2023-04-30T04:15:01.640Z,99765.64
2023-04-30T04:15:24.047Z,99766.00
2023-04-30T04:15:45.883Z,99763.46
2023-04-30T04:16:08.993Z,99761.59
2023-04-30T04:16:31.175Z,99759.52
2023-04-30T04:16:53.122Z,99761.66
2023-04-30T04:17:15.264Z,99762.41
2023-04-30T04:17:38.206Z,99762.67
2023-04-30T04:18:00.067Z,99760.96
2023-04-30T04:18:22.208Z,99760.20
2023-04-30T04:18:44.412Z,99758.49
2023-04-30T04:19:06.753Z,99758.61
2023-04-30T04:19:28.796Z,99762.13
2023-04-30T04:19:51.389Z,99759.05
2023-04-30T04:20:14.121Z,99760.70
2023-04-30T04:20:36.433Z,99756.08
2023-04-30T04:20:58.599Z,99757.56
2023-04-30T04:21:20.667Z,99759.21
2023-04-30T04:21:42.559Z,99762.09
2023-04-30T04:22:09.155Z,99763.14
2023-04-30T04:22:30.934Z,99763.77
2023-04-30T04:22:52.718Z,99764.04
2023-04-30T04:23:14.504Z,99762.16
2023-04-30T04:23:36.720Z,99763.23
2023-04-30T04:23:58.481Z,99764.89
2023-04-30T04:24:20.897Z,99758.74
2023-04-30T04:24:42.667Z,99760.69
2023-04-30T04:25:04.864Z,99764.69
2023-04-30T04:25:27.571Z,99760.81
2023-04-30T04:25:52.514Z,99762.38
2023-04-30T04:26:15.094Z,99763.21
2023-04-30T04:26:37.521Z,99757.48
2023-04-30T04:26:59.916Z,99759.00
2023-04-30T04:27:22.109Z,99760.17
2023-04-30T04:27:44.093Z,99757.86
2023-04-30T04:28:06.702Z,99760.20
2023-04-30T04:28:28.709Z,99758.06
2023-04-30T04:28:50.700Z,99758.84
2023-04-30T04:29:12.524Z,99758.25
2023-04-30T04:29:34.865Z,99759.92
2023-04-30T04:29:57.257Z,99755.48
2023-04-30T04:30:19.237Z,99756.25
2023-04-30T04:30:41.249Z,99758.53
2023-04-30T04:31:03.533Z,99759.52
2023-04-30T04:31:25.659Z,99758.73
2023-04-30T04:31:49.426Z,99756.84
2023-04-30T04:32:12.061Z,99759.19